Terminal Aerodrome Forecast
Issued by NWS

Home | Current Version | Previous Version | Text Only | Print | Product List | Glossary On
Versions: 1 2 3 4 5 6 7 8 9 10 11 12
000
FTUS46 KOTX 211728
TAFPUW
TAF
KPUW 211728Z 2118/2218 25020G26KT P6SM BKN070
     FM212100 26018G24KT P6SM FEW070
     FM220200 27011KT P6SM SKC
     FM220400 VRB04KT P6SM SCT250=

USA.gov is the U.S. government's official web portal to all federal, state and local government web resources and services.